Time;durP1;ratioP1;P1;durP2;ratioP2;P2;SDS_P1;SDS_P2;PMS_P1;PMS_P2;Temp;Humidity;BMP_temperature;BMP_pressure;BME280_temperature;BME280_humidity;BME280_pressure;Samples;Min_cycle;Max_cycle;Signal;HPM_P1;HPM_P2
2021/08/09 00:01:14;;;;;;;3.90;2.08;;;17.60;74.40;;;;;;5044359;28;20040;-70
2021/08/09 00:03:58;;;;;;;3.53;1.00;;;17.60;74.50;;;;;;5044114;28;20032;-71
2021/08/09 00:06:42;;;;;;;2.70;1.00;;;17.60;74.50;;;;;;5043164;28;20120;-70
2021/08/09 00:09:27;;;;;;;3.58;1.10;;;17.60;74.60;;;;;;5043997;28;20350;-70
2021/08/09 00:12:11;;;;;;;3.50;1.17;;;17.50;74.60;;;;;;5044475;28;20040;-71
2021/08/09 00:14:55;;;;;;;3.90;1.15;;;17.50;74.70;;;;;;5044145;28;20040;-71
2021/08/09 00:17:39;;;;;;;7.40;1.20;;;17.50;74.70;;;;;;5044019;28;20033;-71
2021/08/09 00:20:24;;;;;;;5.75;1.08;;;17.50;74.70;;;;;;5044343;28;20037;-70
2021/08/09 00:23:08;;;;;;;1.35;0.90;;;17.50;74.80;;;;;;5043754;28;20032;-71
2021/08/09 00:25:52;;;;;;;4.13;1.20;;;17.40;74.80;;;;;;5043729;28;20079;-71
2021/08/09 00:28:36;;;;;;;1.60;0.93;;;17.40;74.80;;;;;;5043749;28;20037;-71
2021/08/09 00:31:21;;;;;;;2.08;1.00;;;17.40;74.60;;;;;;5043706;28;20043;-71
2021/08/09 00:34:05;;;;;;;3.78;1.10;;;17.40;74.40;;;;;;5043656;28;20309;-71
2021/08/09 00:36:49;;;;;;;3.25;1.13;;;17.40;74.20;;;;;;5043566;28;20048;-71
2021/08/09 00:39:33;;;;;;;5.13;1.10;;;17.30;74.20;;;;;;5043670;28;20091;-68
2021/08/09 00:42:18;;;;;;;4.28;0.95;;;17.30;74.20;;;;;;5043530;28;20273;-67
2021/08/09 00:45:02;;;;;;;3.83;1.00;;;17.30;74.20;;;;;;5044001;28;20033;-68
2021/08/09 00:47:47;;;;;;;3.85;1.10;;;17.30;74.30;;;;;;5043706;28;20355;-69
2021/08/09 00:50:31;;;;;;;3.05;1.00;;;17.30;74.30;;;;;;5044016;28;20036;-68
2021/08/09 00:53:15;;;;;;;2.00;1.20;;;17.20;74.40;;;;;;5043923;28;20087;-69
2021/08/09 00:56:02;;;;;;;3.05;1.08;;;17.20;74.30;;;;;;5043005;28;20041;-69
2021/08/09 00:58:46;;;;;;;2.22;1.10;;;17.20;74.30;;;;;;5043713;28;20080;-68
2021/08/09 01:01:30;;;;;;;4.15;1.00;;;17.20;74.60;;;;;;5042703;28;20048;-68
2021/08/09 01:04:14;;;;;;;2.25;1.00;;;17.10;74.60;;;;;;5043593;28;20028;-69
2021/08/09 01:06:58;;;;;;;3.72;1.17;;;17.10;74.40;;;;;;5043560;28;20029;-68
2021/08/09 01:09:49;;;;;;;3.92;1.00;;;17.20;74.40;;;;;;5043433;28;20025;-69
2021/08/09 01:13:10;;;;;;;1.83;1.20;;;17.10;74.40;;;;;;5042463;28;20217;-69
2021/08/09 01:16:02;;;;;;;3.83;1.00;;;17.10;74.40;;;;;;5040418;28;20064;-69
2021/08/09 01:18:46;;;;;;;4.22;1.30;;;17.10;74.40;;;;;;5046356;28;20071;-68
2021/08/09 01:21:31;;;;;;;3.35;0.90;;;17.00;74.20;;;;;;5047122;28;20124;-68
2021/08/09 01:24:26;;;;;;;1.58;1.05;;;17.10;74.00;;;;;;5046977;28;20056;-68
2021/08/09 01:27:28;;;;;;;2.60;1.20;;;17.00;74.10;;;;;;5033215;28;20024;-69
2021/08/09 01:30:12;;;;;;;3.72;0.90;;;16.90;74.00;;;;;;5033201;28;20045;-69
2021/08/09 01:32:56;;;;;;;3.47;1.00;;;16.90;74.10;;;;;;5047407;28;20293;-69
2021/08/09 01:35:40;;;;;;;2.22;0.93;;;16.90;74.10;;;;;;5047026;28;20039;-69
2021/08/09 01:38:25;;;;;;;4.88;1.10;;;16.90;74.10;;;;;;5032194;28;20095;-68
2021/08/09 01:41:09;;;;;;;2.08;1.15;;;17.00;73.90;;;;;;5046269;28;20075;-69
2021/08/09 01:43:54;;;;;;;1.58;0.90;;;17.00;74.10;;;;;;5047266;28;20079;-68
2021/08/09 01:46:38;;;;;;;6.22;1.30;;;17.00;74.60;;;;;;5045972;28;20079;-69
2021/08/09 01:49:22;;;;;;;5.10;1.40;;;16.90;74.70;;;;;;5046864;28;20032;-69
2021/08/09 01:52:07;;;;;;;5.53;1.20;;;16.90;74.80;;;;;;5046813;28;20140;-69
2021/08/09 01:54:51;;;;;;;3.03;1.08;;;17.00;74.90;;;;;;5045793;28;20024;-69
2021/08/09 01:57:36;;;;;;;5.13;1.30;;;17.00;74.80;;;;;;5046475;28;20137;-68
2021/08/09 02:00:20;;;;;;;3.05;1.10;;;17.00;75.00;;;;;;5045489;28;20259;-68
2021/08/09 02:03:05;;;;;;;4.18;1.30;;;17.10;75.10;;;;;;5046904;28;20105;-69
2021/08/09 02:05:49;;;;;;;5.13;1.30;;;17.00;75.10;;;;;;5045553;28;20264;-69
2021/08/09 02:08:35;;;;;;;4.32;1.20;;;17.00;75.10;;;;;;5046910;28;20071;-69
2021/08/09 02:11:24;;;;;;;3.30;1.30;;;17.00;75.20;;;;;;5046935;28;20266;-69
2021/08/09 02:14:09;;;;;;;5.18;1.38;;;17.00;75.10;;;;;;5045300;28;20044;-69
2021/08/09 02:17:05;;;;;;;5.72;2.15;;;17.00;75.00;;;;;;5045139;28;20247;-69
2021/08/09 02:19:54;;;;;;;2.85;0.95;;;16.90;74.70;;;;;;5045035;28;20105;-69
2021/08/09 02:22:44;;;;;;;4.90;1.13;;;17.00;74.80;;;;;;5031729;28;20075;-69
2021/08/09 02:25:32;;;;;;;15.50;1.73;;;17.00;74.70;;;;;;5043790;28;20064;-69
2021/08/09 02:28:22;;;;;;;3.10;1.10;;;16.90;74.70;;;;;;5031582;28;20082;-69
2021/08/09 02:31:07;;;;;;;4.47;1.23;;;16.90;74.60;;;;;;5031128;28;20217;-69
2021/08/09 02:33:51;;;;;;;2.28;1.20;;;17.00;74.60;;;;;;5044895;28;20299;-68
2021/08/09 02:36:36;;;;;;;3.03;1.20;;;17.00;74.60;;;;;;5044805;28;20052;-69
2021/08/09 02:39:20;;;;;;;3.65;1.20;;;16.90;74.70;;;;;;5045630;28;20029;-68
2021/08/09 02:42:04;;;;;;;6.88;1.10;;;16.90;74.50;;;;;;5045236;28;20024;-69
2021/08/09 02:44:49;;;;;;;2.78;1.13;;;16.90;74.40;;;;;;5030935;28;20105;-69
2021/08/09 02:47:37;;;;;;;2.40;1.08;;;16.80;74.60;;;;;;5045207;28;20037;-69
2021/08/09 02:50:21;;;;;;;2.45;0.90;;;16.90;74.70;;;;;;5045933;28;20071;-69
2021/08/09 02:53:05;;;;;;;4.47;1.10;;;16.90;74.90;;;;;;5044961;28;20384;-69
2021/08/09 02:55:54;;;;;;;1.90;1.10;;;16.90;74.90;;;;;;5045807;28;20128;-69
2021/08/09 02:58:38;;;;;;;4.10;1.05;;;16.90;74.60;;;;;;5045728;28;20036;-69
2021/08/09 03:01:26;;;;;;;3.88;1.27;;;16.80;74.60;;;;;;5044593;28;20040;-69
2021/08/09 03:04:14;;;;;;;1.40;1.00;;;16.80;74.60;;;;;;5044541;28;20091;-68
2021/08/09 03:06:58;;;;;;;2.67;1.00;;;16.80;74.60;;;;;;5044412;28;20036;-69
2021/08/09 03:09:42;;;;;;;6.15;1.75;;;16.80;74.40;;;;;;5045191;28;20025;-68
2021/08/09 03:12:26;;;;;;;3.13;1.10;;;16.80;74.50;;;;;;5044167;28;20059;-68
2021/08/09 03:15:11;;;;;;;3.85;1.20;;;16.80;74.70;;;;;;5045499;28;20248;-69
2021/08/09 03:17:55;;;;;;;2.78;1.00;;;16.80;74.60;;;;;;5045059;28;20040;-69
2021/08/09 03:20:39;;;;;;;2.08;1.20;;;16.80;74.80;;;;;;5045100;28;20056;-69
2021/08/09 03:23:23;;;;;;;3.00;1.23;;;16.80;75.00;;;;;;5044642;28;20103;-69
2021/08/09 03:26:08;;;;;;;3.03;1.20;;;16.90;75.20;;;;;;5044814;28;20079;-68
2021/08/09 03:28:52;;;;;;;2.67;1.13;;;16.80;75.20;;;;;;5045105;28;20033;-69
2021/08/09 03:31:36;;;;;;;2.03;0.95;;;16.80;75.00;;;;;;5044944;28;20033;-69
2021/08/09 03:34:20;;;;;;;4.60;1.27;;;16.90;75.00;;;;;;5044884;28;20032;-69
2021/08/09 03:37:05;;;;;;;5.78;1.17;;;16.90;75.10;;;;;;5044340;28;20071;-69
2021/08/09 03:39:49;;;;;;;3.85;1.17;;;16.90;75.10;;;;;;5044652;28;20217;-68
2021/08/09 03:42:34;;;;;;;2.67;1.30;;;17.00;75.10;;;;;;5044639;28;20028;-69
2021/08/09 03:45:18;;;;;;;2.53;1.00;;;16.90;75.20;;;;;;5044443;28;20350;-67
2021/08/09 03:48:03;;;;;;;6.88;1.00;;;17.00;75.40;;;;;;5044917;28;20245;-69
2021/08/09 03:50:47;;;;;;;3.80;1.15;;;17.00;75.30;;;;;;5044562;28;20232;-69
2021/08/09 03:53:31;;;;;;;4.00;1.13;;;17.10;75.40;;;;;;5044224;28;20028;-69
2021/08/09 03:56:15;;;;;;;3.92;1.15;;;17.10;75.30;;;;;;5044863;28;20036;-69
2021/08/09 03:58:59;;;;;;;6.35;1.40;;;17.10;75.20;;;;;;5044592;28;20075;-69
2021/08/09 04:01:47;;;;;;;4.22;1.20;;;17.10;75.20;;;;;;5044449;28;20398;-69
2021/08/09 04:04:31;;;;;;;7.20;1.60;;;17.00;75.20;;;;;;5044411;28;20043;-69
2021/08/09 04:07:15;;;;;;;3.65;1.17;;;17.00;75.10;;;;;;5044233;28;20270;-68
2021/08/09 04:10:00;;;;;;;2.80;1.23;;;17.00;75.00;;;;;;5044227;28;20370;-69
2021/08/09 04:12:44;;;;;;;3.47;1.10;;;16.90;75.00;;;;;;5044000;28;20025;-68
2021/08/09 04:15:29;;;;;;;3.15;1.15;;;17.00;74.80;;;;;;5043929;28;20052;-68
2021/08/09 04:18:13;;;;;;;4.50;1.35;;;17.00;74.80;;;;;;5043825;28;20060;-68
2021/08/09 04:20:57;;;;;;;3.92;1.33;;;16.90;74.90;;;;;;5043484;28;20347;-69
2021/08/09 04:23:41;;;;;;;4.22;1.13;;;16.80;74.90;;;;;;5043729;28;20052;-69
2021/08/09 04:26:26;;;;;;;2.50;1.23;;;16.80;75.00;;;;;;5043396;28;20040;-69
2021/08/09 04:29:10;;;;;;;7.20;1.27;;;16.80;75.00;;;;;;5043749;28;20375;-69
2021/08/09 04:31:54;;;;;;;4.32;1.20;;;16.80;74.90;;;;;;5044091;28;20040;-69
2021/08/09 04:34:38;;;;;;;1.92;1.30;;;16.80;74.80;;;;;;5043681;28;20032;-69
2021/08/09 04:37:24;;;;;;;5.50;1.30;;;16.80;74.80;;;;;;5043607;28;20366;-69
2021/08/09 04:40:09;;;;;;;6.15;1.15;;;16.80;74.80;;;;;;5043572;28;20259;-69
2021/08/09 04:42:53;;;;;;;1.73;1.20;;;16.80;74.60;;;;;;5043717;28;20048;-68
2021/08/09 04:45:37;;;;;;;4.22;1.38;;;16.80;74.60;;;;;;5043585;28;20032;-68
2021/08/09 04:48:21;;;;;;;2.70;1.40;;;16.80;74.60;;;;;;5042781;28;20043;-68
2021/08/09 04:51:06;;;;;;;11.55;1.35;;;16.80;74.70;;;;;;5043945;28;20024;-69
2021/08/09 04:53:50;;;;;;;3.88;1.50;;;16.70;74.80;;;;;;5043618;28;20028;-69
2021/08/09 04:56:34;;;;;;;1.80;1.05;;;16.70;74.80;;;;;;5043914;28;20058;-69
2021/08/09 04:59:19;;;;;;;4.55;1.10;;;16.70;74.90;;;;;;5043869;28;20098;-69
2021/08/09 05:02:03;;;;;;;5.68;1.33;;;16.70;75.00;;;;;;5043763;28;20378;-69
2021/08/09 05:04:47;;;;;;;3.85;1.00;;;16.70;75.00;;;;;;5042799;28;20025;-69
2021/08/09 05:07:32;;;;;;;5.57;1.30;;;16.60;75.10;;;;;;5043267;28;20040;-69
2021/08/09 05:10:16;;;;;;;3.63;1.10;;;16.70;75.30;;;;;;5043246;28;20213;-69
2021/08/09 05:13:00;;;;;;;6.13;1.33;;;16.70;75.30;;;;;;5043367;28;20068;-69
2021/08/09 05:15:44;;;;;;;2.38;1.25;;;16.70;75.50;;;;;;5043263;28;20040;-69
2021/08/09 05:18:29;;;;;;;2.10;1.55;;;16.70;75.70;;;;;;5043204;28;20056;-69
2021/08/09 05:21:16;;;;;;;5.55;1.70;;;16.80;75.80;;;;;;5043189;28;20028;-67
2021/08/09 05:24:05;;;;;;;4.85;2.00;;;16.80;75.90;;;;;;5043446;28;20063;-69
2021/08/09 05:26:48;;;;;;;5.95;2.08;;;16.80;76.00;;;;;;5043328;28;20084;-69
2021/08/09 05:29:33;;;;;;;4.97;1.42;;;16.90;76.20;;;;;;5043665;28;20229;-69
2021/08/09 05:32:17;;;;;;;2.92;1.80;;;17.00;76.00;;;;;;5043321;28;20051;-69
2021/08/09 05:35:02;;;;;;;4.35;1.27;;;17.00;75.90;;;;;;5043520;28;20063;-69
2021/08/09 05:37:46;;;;;;;3.42;1.17;;;17.10;75.90;;;;;;5043334;28;20095;-69
2021/08/09 05:40:30;;;;;;;4.20;1.30;;;17.10;76.10;;;;;;5043316;28;20040;-69
2021/08/09 05:43:15;;;;;;;4.95;1.33;;;17.20;76.10;;;;;;5043430;28;20032;-69
2021/08/09 05:45:59;;;;;;;2.03;1.27;;;17.30;76.30;;;;;;5043245;28;20055;-69
2021/08/09 05:48:43;;;;;;;4.15;1.35;;;17.30;76.40;;;;;;5043063;28;20196;-68
2021/08/09 05:51:28;;;;;;;2.72;1.40;;;17.30;76.40;;;;;;5042850;28;20059;-68
2021/08/09 05:54:12;;;;;;;3.65;1.20;;;17.30;76.40;;;;;;5043212;28;20055;-69
2021/08/09 05:56:56;;;;;;;4.47;1.50;;;17.30;76.00;;;;;;5042937;28;20037;-69
2021/08/09 05:59:40;;;;;;;3.42;1.45;;;17.40;75.80;;;;;;5044276;28;20040;-69
2021/08/09 06:02:24;;;;;;;3.63;1.20;;;17.50;75.40;;;;;;5031372;28;20081;-69
2021/08/09 06:05:09;;;;;;;5.82;1.13;;;17.50;75.50;;;;;;5046713;28;20049;-69
2021/08/09 06:07:53;;;;;;;2.03;1.27;;;17.50;74.60;;;;;;5045406;28;20037;-69
2021/08/09 06:10:37;;;;;;;2.85;1.25;;;17.60;74.70;;;;;;5046257;28;20044;-69
2021/08/09 06:13:21;;;;;;;4.93;1.40;;;17.70;74.80;;;;;;5045221;28;20093;-69
2021/08/09 06:16:05;;;;;;;2.20;1.23;;;17.80;74.80;;;;;;5045967;28;20032;-69
2021/08/09 06:18:50;;;;;;;3.90;1.30;;;17.80;74.80;;;;;;5046079;28;20044;-69
2021/08/09 06:21:34;;;;;;;5.25;1.40;;;17.80;74.50;;;;;;5045976;28;20390;-69
2021/08/09 06:24:21;;;;;;;2.20;1.05;;;17.90;74.20;;;;;;5045728;28;20241;-68
2021/08/09 06:27:05;;;;;;;2.45;1.30;;;17.90;74.10;;;;;;5046349;28;20351;-69
2021/08/09 06:29:49;;;;;;;2.03;1.27;;;18.00;74.00;;;;;;5046036;28;20040;-69
2021/08/09 06:32:34;;;;;;;3.63;1.50;;;18.10;73.90;;;;;;5046409;28;20220;-69
2021/08/09 06:35:18;;;;;;;5.43;1.23;;;18.20;73.70;;;;;;5045787;28;20033;-69
2021/08/09 06:38:06;;;;;;;4.20;1.88;;;18.20;73.80;;;;;;5045541;28;20232;-69
2021/08/09 06:40:50;;;;;;;4.20;1.35;;;18.20;74.10;;;;;;5045985;28;20037;-69
2021/08/09 06:43:34;;;;;;;3.40;1.58;;;18.30;73.80;;;;;;5045888;28;20420;-69
2021/08/09 06:46:18;;;;;;;3.63;1.35;;;18.30;73.60;;;;;;5045601;28;20028;-69
2021/08/09 06:49:04;;;;;;;4.65;1.52;;;18.40;73.30;;;;;;5045658;28;20032;-69
2021/08/09 06:51:49;;;;;;;3.05;1.38;;;18.40;73.00;;;;;;5045424;28;20236;-69
2021/08/09 06:54:33;;;;;;;5.78;1.15;;;18.50;73.10;;;;;;5045466;28;20105;-68
2021/08/09 06:57:17;;;;;;;3.00;1.38;;;18.60;73.20;;;;;;5045245;28;20037;-68
2021/08/09 07:00:02;;;;;;;2.58;1.13;;;18.70;72.90;;;;;;5045782;28;20025;-69
2021/08/09 07:02:46;;;;;;;5.22;1.40;;;18.80;72.40;;;;;;5045266;28;20083;-69
2021/08/09 07:05:30;;;;;;;2.20;1.23;;;18.80;71.70;;;;;;5045677;28;20033;-69
2021/08/09 07:08:15;;;;;;;4.13;1.30;;;18.80;70.70;;;;;;5045611;28;20361;-69
2021/08/09 07:10:59;;;;;;;5.30;1.20;;;18.80;69.20;;;;;;5043963;28;20131;-69
2021/08/09 07:13:43;;;;;;;3.17;1.00;;;18.90;69.50;;;;;;5044437;28;20029;-69
2021/08/09 07:16:27;;;;;;;2.97;1.30;;;18.90;70.00;;;;;;5045208;28;20033;-69
2021/08/09 07:19:11;;;;;;;6.10;1.30;;;19.10;69.90;;;;;;5044784;28;20025;-69
2021/08/09 07:21:56;;;;;;;29.55;4.88;;;19.20;69.80;;;;;;5044921;28;20052;-69
2021/08/09 07:24:40;;;;;;;5.80;1.35;;;19.30;70.00;;;;;;5044670;28;20264;-69
2021/08/09 07:27:24;;;;;;;3.72;1.30;;;19.40;69.60;;;;;;5044992;28;20347;-69
2021/08/09 07:30:11;;;;;;;5.05;1.30;;;19.40;69.40;;;;;;5045218;28;20029;-70
2021/08/09 07:32:55;;;;;;;7.25;1.63;;;19.50;68.50;;;;;;5044894;28;20040;-69
2021/08/09 07:35:40;;;;;;;5.80;1.80;;;19.60;68.30;;;;;;5044727;28;20040;-69
2021/08/09 07:38:24;;;;;;;3.60;1.50;;;19.70;67.20;;;;;;5044958;28;20048;-69
2021/08/09 07:41:09;;;;;;;3.22;1.40;;;19.80;68.10;;;;;;5044877;28;20036;-69
2021/08/09 07:43:53;;;;;;;4.82;1.40;;;20.10;67.40;;;;;;5045031;28;20060;-69
2021/08/09 07:46:37;;;;;;;6.03;1.63;;;20.30;67.20;;;;;;5044754;28;20040;-69
2021/08/09 07:49:21;;;;;;;2.67;1.20;;;20.50;66.90;;;;;;5044794;28;20051;-69
2021/08/09 07:52:06;;;;;;;4.70;1.45;;;20.60;65.40;;;;;;5044338;28;20028;-69
2021/08/09 07:54:50;;;;;;;2.38;1.40;;;20.70;65.90;;;;;;5044380;28;20054;-70
2021/08/09 07:57:34;;;;;;;3.00;1.60;;;20.80;65.70;;;;;;5044219;28;20071;-70
2021/08/09 08:00:19;;;;;;;4.70;1.20;;;20.80;66.40;;;;;;5044475;28;20036;-68
2021/08/09 08:03:03;;;;;;;3.67;1.20;;;20.80;63.80;;;;;;5044695;28;20359;-70
2021/08/09 08:05:48;;;;;;;3.20;1.35;;;20.90;64.50;;;;;;5043335;28;20052;-70
2021/08/09 08:08:32;;;;;;;3.08;1.20;;;21.10;64.80;;;;;;5044574;28;20072;-70
2021/08/09 08:11:16;;;;;;;3.92;1.23;;;21.20;63.80;;;;;;5044394;28;20033;-70
2021/08/09 08:14:00;;;;;;;4.30;1.30;;;21.30;64.10;;;;;;5043772;28;20080;-70
2021/08/09 08:16:46;;;;;;;2.42;1.00;;;21.30;63.20;;;;;;5043782;28;20040;-70
2021/08/09 08:19:30;;;;;;;2.58;1.10;;;21.40;63.80;;;;;;5043908;28;20036;-69
2021/08/09 08:22:14;;;;;;;3.20;1.42;;;21.40;63.80;;;;;;5043673;28;20444;-70
2021/08/09 08:24:58;;;;;;;4.45;1.23;;;21.50;64.50;;;;;;5043398;28;20060;-70
2021/08/09 08:27:43;;;;;;;2.33;1.10;;;21.60;63.30;;;;;;5043742;28;20025;-70
2021/08/09 08:30:27;;;;;;;2.88;1.17;;;21.70;63.60;;;;;;5043697;28;20072;-69
2021/08/09 08:33:11;;;;;;;3.05;1.00;;;21.70;60.90;;;;;;5044156;28;20024;-70
2021/08/09 08:35:55;;;;;;;2.50;0.98;;;21.80;61.00;;;;;;5043884;28;20037;-70
2021/08/09 08:38:40;;;;;;;4.32;1.23;;;21.80;59.10;;;;;;5043763;28;20063;-70
2021/08/09 08:41:24;;;;;;;9.45;2.08;;;21.90;59.30;;;;;;5044116;28;20063;-70
2021/08/09 08:44:08;;;;;;;7.13;1.23;;;22.00;59.80;;;;;;5043556;28;20033;-70
2021/08/09 08:46:54;;;;;;;4.20;1.30;;;22.10;60.30;;;;;;5043532;28;20233;-70
2021/08/09 08:49:38;;;;;;;4.63;0.98;;;22.10;59.80;;;;;;5043714;28;20094;-70
2021/08/09 08:52:23;;;;;;;9.43;2.67;;;22.10;59.00;;;;;;5042488;28;20257;-70
2021/08/09 08:55:07;;;;;;;7.30;1.38;;;22.30;59.50;;;;;;5043360;28;20216;-70
2021/08/09 08:57:52;;;;;;;5.03;1.15;;;22.30;59.00;;;;;;5043387;28;20148;-70
2021/08/09 09:00:37;;;;;;;3.38;1.33;;;22.30;59.10;;;;;;5043917;28;20071;-69
2021/08/09 09:03:23;;;;;;;4.45;1.33;;;22.40;59.20;;;;;;5043396;28;20056;-69
2021/08/09 09:06:08;;;;;;;6.00;1.20;;;22.40;59.10;;;;;;5043826;28;20036;-70
2021/08/09 09:08:52;;;;;;;4.90;1.30;;;22.50;60.20;;;;;;5043484;28;20052;-70
2021/08/09 09:11:39;;;;;;;4.28;1.10;;;22.60;59.80;;;;;;5043310;28;20036;-70
2021/08/09 09:14:29;;;;;;;8.55;1.20;;;22.60;57.60;;;;;;5043803;28;20036;-70
2021/08/09 09:17:13;;;;;;;4.55;1.23;;;22.60;57.30;;;;;;5043672;28;20100;-70
2021/08/09 09:19:57;;;;;;;4.25;1.23;;;22.60;58.50;;;;;;5028446;28;20105;-70
2021/08/09 09:22:41;;;;;;;2.38;1.02;;;22.70;60.10;;;;;;5043157;28;20087;-70
2021/08/09 09:25:32;;;;;;;4.13;1.10;;;22.80;59.10;;;;;;5043050;28;20044;-70
2021/08/09 09:28:20;;;;;;;;;;;22.80;59.70;;;;;;5043543;28;20401;-70
2021/08/09 09:31:13;;;;;;;1.85;0.93;;;23.00;59.20;;;;;;5047814;28;19968;-70
2021/08/09 09:33:58;;;;;;;7.35;1.30;;;23.10;59.30;;;;;;5043410;28;20036;-70
2021/08/09 09:36:51;;;;;;;4.03;1.30;;;23.20;59.50;;;;;;5046752;28;20056;-70
2021/08/09 09:39:38;;;;;;;3.97;1.45;;;23.20;59.30;;;;;;5046578;28;20033;-70
2021/08/09 09:42:22;;;;;;;2.25;1.08;;;23.10;55.60;;;;;;5046723;28;20048;-69
2021/08/09 09:45:21;;;;;;;2.97;1.10;;;23.10;55.20;;;;;;5032425;28;20024;-70
2021/08/09 09:48:06;;;;;;;2.97;0.90;;;23.10;54.30;;;;;;5046853;28;20033;-70
2021/08/09 09:50:50;;;;;;;2.25;0.90;;;23.20;55.90;;;;;;5047323;28;20052;-70
2021/08/09 09:53:35;;;;;;;3.50;1.25;;;23.30;56.40;;;;;;5047182;28;20033;-70
2021/08/09 09:56:22;;;;;;;3.83;1.10;;;23.40;56.20;;;;;;5046933;28;20044;-70
2021/08/09 09:59:06;;;;;;;4.10;1.08;;;23.50;56.40;;;;;;5046901;28;20075;-70
2021/08/09 10:01:51;;;;;;;3.13;1.40;;;23.50;56.30;;;;;;5046861;28;20075;-70
2021/08/09 10:04:35;;;;;;;3.20;1.33;;;23.60;55.00;;;;;;5046416;28;20032;-70
2021/08/09 10:07:25;;;;;;;3.67;2.20;;;23.70;56.10;;;;;;5046483;28;20024;-70
2021/08/09 10:10:10;;;;;;;3.95;1.40;;;23.70;56.60;;;;;;5046630;28;20040;-70
2021/08/09 10:12:54;;;;;;;3.05;1.00;;;23.80;56.90;;;;;;5045384;28;20097;-69
2021/08/09 10:15:38;;;;;;;2.28;1.00;;;23.80;56.80;;;;;;5046211;28;20029;-70
2021/08/09 10:18:26;;;;;;;1.38;0.80;;;23.90;54.00;;;;;;5045988;28;20080;-69
2021/08/09 10:21:10;;;;;;;4.00;1.05;;;23.80;51.40;;;;;;5045666;28;20028;-70
2021/08/09 10:23:54;;;;;;;3.40;1.02;;;23.90;53.70;;;;;;5045893;28;20079;-70
2021/08/09 10:26:45;;;;;;;3.20;1.20;;;24.00;54.00;;;;;;5045173;28;20036;-70
2021/08/09 10:29:29;;;;;;;4.43;1.30;;;24.10;53.60;;;;;;5046459;28;20037;-69
2021/08/09 10:32:18;;;;;;;2.83;1.08;;;24.30;54.90;;;;;;5046292;28;20032;-70
2021/08/09 10:35:02;;;;;;;3.42;1.38;;;24.30;54.20;;;;;;5046133;28;20094;-70
2021/08/09 10:38:19;;;;;;;2.60;1.00;;;24.30;55.50;;;;;;5045846;28;20041;-70
2021/08/09 10:41:04;;;;;;;3.53;1.00;;;24.40;50.40;;;;;;5045299;28;20037;-70
2021/08/09 10:44:09;;;;;;;1.73;0.93;;;24.40;50.60;;;;;;5045538;28;20244;-70
2021/08/09 10:46:55;;;;;;;7.40;1.48;;;24.50;51.80;;;;;;5044385;28;20045;-70
2021/08/09 10:49:39;;;;;;;5.38;1.20;;;24.50;50.30;;;;;;5045774;28;20205;-70
2021/08/09 10:52:33;;;;;;;4.07;1.30;;;24.40;49.10;;;;;;5045433;28;20032;-70
2021/08/09 10:55:29;;;;;;;3.72;0.93;;;24.50;50.80;;;;;;5045549;28;20128;-70
2021/08/09 10:58:42;;;;;;;1.52;0.80;;;24.60;52.60;;;;;;5045194;28;20040;-70
2021/08/09 11:01:26;;;;;;;2.10;1.00;;;24.50;47.40;;;;;;5045098;28;20319;-70
2021/08/09 11:04:12;;;;;;;1.85;1.20;;;24.60;50.00;;;;;;5030356;28;20135;-70
2021/08/09 11:06:56;;;;;;;1.80;0.90;;;24.50;49.60;;;;;;5045083;28;20113;-70
2021/08/09 11:09:41;;;;;;;5.82;1.40;;;24.50;48.40;;;;;;5045176;28;20113;-70
2021/08/09 11:12:25;;;;;;;2.97;1.15;;;24.60;48.30;;;;;;5045090;28;20028;-69
2021/08/09 11:15:13;;;;;;;6.85;1.02;;;24.50;50.00;;;;;;5045525;28;20347;-70
2021/08/09 11:17:58;;;;;;;2.42;0.80;;;24.60;51.10;;;;;;5044115;28;20099;-70
2021/08/09 11:20:42;;;;;;;2.00;0.80;;;24.60;52.00;;;;;;5045152;28;20052;-70
2021/08/09 11:23:26;;;;;;;1.80;0.90;;;24.70;49.90;;;;;;5045176;28;20067;-70
2021/08/09 11:26:26;;;;;;;2.13;1.00;;;24.60;48.70;;;;;;5045268;28;20091;-70
2021/08/09 11:29:11;;;;;;;1.92;1.05;;;24.70;49.10;;;;;;5043831;28;20036;-71
2021/08/09 11:31:55;;;;;;;4.63;1.52;;;24.70;49.00;;;;;;5044778;28;20072;-70
2021/08/09 11:34:59;;;;;;;2.35;0.90;;;24.70;48.10;;;;;;5044687;28;20032;-69
2021/08/09 11:38:02;;;;;;;2.97;1.10;;;24.60;45.20;;;;;;5044416;28;20272;-69
2021/08/09 11:40:47;;;;;;;2.85;1.00;;;24.60;46.30;;;;;;5044903;28;20352;-70
2021/08/09 11:43:34;;;;;;;2.05;1.00;;;24.50;46.70;;;;;;5044811;28;20048;-70
2021/08/09 11:46:18;;;;;;;2.40;1.02;;;24.60;49.10;;;;;;5044460;28;20052;-70
2021/08/09 11:49:03;;;;;;;2.15;0.93;;;24.80;49.60;;;;;;5044591;28;20035;-69
2021/08/09 11:51:48;;;;;;;2.03;0.82;;;24.90;51.00;;;;;;5029666;28;20041;-69
2021/08/09 11:54:39;;;;;;;2.78;1.08;;;24.80;47.90;;;;;;5044398;28;20079;-69
2021/08/09 11:57:23;;;;;;;3.10;0.90;;;24.60;46.00;;;;;;5043896;28;20025;-69
2021/08/09 12:00:08;;;;;;;4.18;1.27;;;24.80;49.50;;;;;;5029813;28;20025;-69
2021/08/09 12:03:16;;;;;;;3.08;1.00;;;24.90;51.80;;;;;;5043320;28;20040;-69
2021/08/09 12:06:20;;;;;;;3.13;1.00;;;25.10;50.00;;;;;;5043278;28;20036;-69
2021/08/09 12:09:04;;;;;;;2.85;0.90;;;25.00;46.40;;;;;;5044169;28;20040;-69
2021/08/09 12:12:00;;;;;;;2.05;0.90;;;25.10;47.10;;;;;;5044127;28;20056;-69
2021/08/09 12:14:44;;;;;;;2.15;1.00;;;25.30;48.50;;;;;;5044160;28;20080;-70
2021/08/09 12:17:28;;;;;;;2.35;1.02;;;25.30;48.80;;;;;;5044354;28;20100;-69
2021/08/09 12:20:14;;;;;;;1.80;0.90;;;25.30;50.00;;;;;;5044314;28;20032;-70
2021/08/09 12:22:58;;;;;;;1.63;0.93;;;25.30;47.70;;;;;;5043648;28;20093;-69
2021/08/09 12:25:42;;;;;;;2.05;0.90;;;25.10;46.30;;;;;;5044079;28;20079;-69
2021/08/09 12:28:29;;;;;;;3.22;0.93;;;25.20;45.90;;;;;;5043908;28;20048;-70
2021/08/09 12:31:27;;;;;;;5.00;1.20;;;25.30;47.30;;;;;;5043710;28;20045;-69
2021/08/09 12:34:16;;;;;;;1.40;0.80;;;25.30;48.50;;;;;;5042838;28;20032;-70
2021/08/09 12:37:08;;;;;;;1.98;0.90;;;25.40;50.30;;;;;;5043524;28;20083;-69
2021/08/09 12:40:10;;;;;;;2.95;1.00;;;25.50;50.40;;;;;;5043104;28;20043;-69
2021/08/09 12:43:02;;;;;;;2.08;1.00;;;25.50;48.60;;;;;;5042744;28;20031;-69
2021/08/09 12:45:47;;;;;;;2.67;1.00;;;25.60;47.40;;;;;;5043481;28;20268;-69
2021/08/09 12:48:31;;;;;;;6.22;1.10;;;25.70;47.40;;;;;;5043559;28;20075;-70
2021/08/09 12:51:16;;;;;;;3.28;1.38;;;25.70;47.20;;;;;;5043518;28;20218;-69
2021/08/09 12:54:00;;;;;;;2.42;1.20;;;25.80;48.00;;;;;;5043846;28;20024;-69
2021/08/09 12:56:44;;;;;;;2.25;1.00;;;25.70;47.90;;;;;;5043557;28;20074;-70
2021/08/09 12:59:28;;;;;;;4.63;1.02;;;25.80;46.20;;;;;;5043858;28;20041;-69
2021/08/09 13:02:13;;;;;;;2.85;0.90;;;25.70;47.10;;;;;;5043545;28;20029;-69
2021/08/09 13:04:57;;;;;;;3.67;1.05;;;25.80;47.70;;;;;;5043764;28;20061;-69
2021/08/09 13:07:42;;;;;;;2.63;1.10;;;25.80;48.10;;;;;;5043638;28;20068;-69
2021/08/09 13:10:26;;;;;;;2.95;1.00;;;26.00;49.20;;;;;;5046784;28;20036;-70
2021/08/09 13:13:10;;;;;;;3.15;1.10;;;25.90;47.00;;;;;;5047265;28;20085;-69
2021/08/09 13:15:54;;;;;;;2.70;1.00;;;26.00;48.00;;;;;;5047350;28;20369;-69
2021/08/09 13:18:38;;;;;;;4.20;1.17;;;25.90;49.30;;;;;;5046578;28;20084;-69
2021/08/09 13:21:23;;;;;;;2.22;1.05;;;26.00;49.20;;;;;;5047196;28;20347;-69
2021/08/09 13:24:07;;;;;;;2.70;0.98;;;26.10;49.90;;;;;;5047204;28;20095;-70
2021/08/09 13:26:51;;;;;;;1.73;0.90;;;26.10;49.80;;;;;;5047228;28;20032;-70
2021/08/09 13:29:35;;;;;;;3.75;1.23;;;26.00;49.20;;;;;;5047023;28;20079;-69
2021/08/09 13:32:20;;;;;;;2.72;1.10;;;25.90;48.00;;;;;;5046991;28;20032;-70
2021/08/09 13:35:05;;;;;;;3.17;1.00;;;25.80;46.00;;;;;;5047334;28;20037;-69
2021/08/09 13:37:49;;;;;;;9.00;1.20;;;25.70;45.40;;;;;;5045888;28;20041;-69
2021/08/09 13:40:33;;;;;;;2.20;1.00;;;25.60;45.50;;;;;;5047000;28;20087;-69
2021/08/09 13:43:17;;;;;;;1.50;0.90;;;25.50;45.70;;;;;;5046826;28;20040;-69
2021/08/09 13:46:01;;;;;;;3.00;1.00;;;25.50;46.40;;;;;;5046856;28;20071;-69
2021/08/09 13:48:49;;;;;;;3.55;1.20;;;25.50;47.90;;;;;;5046607;28;20075;-69
2021/08/09 13:51:33;;;;;;;3.85;0.90;;;25.30;44.90;;;;;;5046608;28;20032;-69
2021/08/09 13:54:18;;;;;;;4.15;1.35;;;25.20;44.70;;;;;;5046527;28;20028;-68
2021/08/09 13:57:02;;;;;;;1.60;0.80;;;25.30;46.50;;;;;;5046936;28;20406;-69
2021/08/09 13:59:46;;;;;;;3.47;0.98;;;25.20;44.90;;;;;;5046645;28;20140;-69
2021/08/09 14:02:30;;;;;;;3.05;1.20;;;25.20;46.90;;;;;;5046959;28;20036;-69
2021/08/09 14:05:15;;;;;;;3.22;0.98;;;25.10;45.10;;;;;;5031979;28;20090;-69
2021/08/09 14:07:59;;;;;;;2.42;1.10;;;25.00;45.40;;;;;;5046646;28;20044;-69
2021/08/09 14:10:43;;;;;;;2.35;1.00;;;25.00;45.60;;;;;;5046572;28;20037;-69
2021/08/09 14:13:27;;;;;;;2.47;0.90;;;25.10;48.00;;;;;;5046308;28;20256;-69
2021/08/09 14:16:12;;;;;;;2.25;1.02;;;25.10;47.50;;;;;;5046272;28;20075;-69
2021/08/09 14:18:56;;;;;;;1.60;0.98;;;25.10;47.60;;;;;;5046189;28;20040;-69
2021/08/09 14:21:40;;;;;;;3.53;1.17;;;25.10;48.00;;;;;;5046060;28;20032;-69
2021/08/09 14:24:28;;;;;;;3.92;1.20;;;25.10;49.80;;;;;;5045716;28;20060;-68